Terminal Aerodrome Forecast
Issued by NWS New Orleans/Baton Rouge, LA

Home | Current Version | Previous Version | Text Only | Print | Product List | Glossary On
Versions: 1 2 3 4 5 6 7 8 9 10 11 12 13 14 15 16 17 18 19 20 21 22 23 24 25 26 27
000
FTUS44 KLIX 021720
TAFNEW
TAF
KNEW 021720Z 0218/0318 25004KT P6SM BKN020 BKN027 OVC040
     FM030000 20010G17KT P6SM SCT250
     FM031000 22006KT P6SM BKN250=

USA.gov is the U.S. government's official web portal to all federal, state and local government web resources and services.